sensor_id;sensor_type;location;lat;lon;timestamp;temperature;humidity
36556;DHT22;40859;50.560;7.268;2022-09-28T00:00:37;21.40;94.90
36556;DHT22;40859;50.560;7.268;2022-09-28T00:03:06;21.40;94.90
36556;DHT22;40859;50.560;7.268;2022-09-28T00:05:32;21.40;94.90
36556;DHT22;40859;50.560;7.268;2022-09-28T00:07:57;21.40;95.00
36556;DHT22;40859;50.560;7.268;2022-09-28T00:10:24;21.40;94.90
36556;DHT22;40859;50.560;7.268;2022-09-28T00:12:51;21.40;95.00
36556;DHT22;40859;50.560;7.268;2022-09-28T00:15:17;21.40;95.00
36556;DHT22;40859;50.560;7.268;2022-09-28T00:17:43;21.40;94.90
36556;DHT22;40859;50.560;7.268;2022-09-28T00:20:10;21.40;95.00
36556;DHT22;40859;50.560;7.268;2022-09-28T00:22:36;21.40;94.90
36556;DHT22;40859;50.560;7.268;2022-09-28T00:25:03;21.40;94.90
36556;DHT22;40859;50.560;7.268;2022-09-28T00:27:28;21.40;94.90
36556;DHT22;40859;50.560;7.268;2022-09-28T00:29:54;21.40;94.90
36556;DHT22;40859;50.560;7.268;2022-09-28T00:32:20;21.40;94.90
36556;DHT22;40859;50.560;7.268;2022-09-28T00:34:49;21.40;94.90
36556;DHT22;40859;50.560;7.268;2022-09-28T00:37:16;21.40;94.90
36556;DHT22;40859;50.560;7.268;2022-09-28T00:39:47;21.30;94.90
36556;DHT22;40859;50.560;7.268;2022-09-28T00:42:23;21.40;95.00
36556;DHT22;40859;50.560;7.268;2022-09-28T00:44:51;21.40;94.90
36556;DHT22;40859;50.560;7.268;2022-09-28T00:48:05;21.30;94.90
36556;DHT22;40859;50.560;7.268;2022-09-28T00:50:32;21.40;94.90
36556;DHT22;40859;50.560;7.268;2022-09-28T00:53:14;21.30;94.90
36556;DHT22;40859;50.560;7.268;2022-09-28T00:55:56;21.30;94.90
36556;DHT22;40859;50.560;7.268;2022-09-28T00:58:29;21.40;94.90
36556;DHT22;40859;50.560;7.268;2022-09-28T01:00:57;21.30;94.90
36556;DHT22;40859;50.560;7.268;2022-09-28T01:03:24;21.30;94.90
36556;DHT22;40859;50.560;7.268;2022-09-28T01:05:52;21.30;94.90
36556;DHT22;40859;50.560;7.268;2022-09-28T01:08:20;21.30;94.90
36556;DHT22;40859;50.560;7.268;2022-09-28T01:10:48;21.30;94.90
36556;DHT22;40859;50.560;7.268;2022-09-28T01:13:16;21.30;94.90
36556;DHT22;40859;50.560;7.268;2022-09-28T01:15:58;21.30;94.90
36556;DHT22;40859;50.560;7.268;2022-09-28T01:24:46;21.30;94.90
36556;DHT22;40859;50.560;7.268;2022-09-28T01:28:18;21.30;94.80
36556;DHT22;40859;50.560;7.268;2022-09-28T01:34:07;21.30;94.20
36556;DHT22;40859;50.560;7.268;2022-09-28T01:36:42;21.20;94.70
36556;DHT22;40859;50.560;7.268;2022-09-28T01:39:16;21.20;94.80
36556;DHT22;40859;50.560;7.268;2022-09-28T01:41:45;21.30;94.80
36556;DHT22;40859;50.560;7.268;2022-09-28T01:44:15;21.20;94.80
36556;DHT22;40859;50.560;7.268;2022-09-28T01:46:45;21.20;94.80
36556;DHT22;40859;50.560;7.268;2022-09-28T01:50:14;21.20;94.80
36556;DHT22;40859;50.560;7.268;2022-09-28T01:59:30;21.20;94.80
36556;DHT22;40859;50.560;7.268;2022-09-28T02:02:10;21.20;94.80
36556;DHT22;40859;50.560;7.268;2022-09-28T02:04:47;21.20;94.80
36556;DHT22;40859;50.560;7.268;2022-09-28T02:07:19;21.20;94.80
36556;DHT22;40859;50.560;7.268;2022-09-28T02:09:52;21.20;94.80
36556;DHT22;40859;50.560;7.268;2022-09-28T02:12:29;21.20;94.80
36556;DHT22;40859;50.560;7.268;2022-09-28T02:15:05;21.20;94.70
36556;DHT22;40859;50.560;7.268;2022-09-28T02:17:34;21.20;94.80
36556;DHT22;40859;50.560;7.268;2022-09-28T02:20:00;21.20;94.80
36556;DHT22;40859;50.560;7.268;2022-09-28T02:22:38;21.20;94.80
36556;DHT22;40859;50.560;7.268;2022-09-28T02:25:16;21.20;94.80
36556;DHT22;40859;50.560;7.268;2022-09-28T02:28:04;21.10;94.80
36556;DHT22;40859;50.560;7.268;2022-09-28T02:30:34;21.10;94.90
36556;DHT22;40859;50.560;7.268;2022-09-28T02:33:07;21.10;94.70
36556;DHT22;40859;50.560;7.268;2022-09-28T02:35:37;21.10;94.70
36556;DHT22;40859;50.560;7.268;2022-09-28T02:38:03;21.10;94.70
36556;DHT22;40859;50.560;7.268;2022-09-28T02:40:31;21.10;94.70
36556;DHT22;40859;50.560;7.268;2022-09-28T02:49:51;21.10;94.70
36556;DHT22;40859;50.560;7.268;2022-09-28T02:53:30;21.10;94.70
36556;DHT22;40859;50.560;7.268;2022-09-28T02:56:16;21.10;94.70
36556;DHT22;40859;50.560;7.268;2022-09-28T02:59:06;21.10;94.70
36556;DHT22;40859;50.560;7.268;2022-09-28T03:03:16;21.10;94.70
36556;DHT22;40859;50.560;7.268;2022-09-28T03:06:06;21.10;94.70
36556;DHT22;40859;50.560;7.268;2022-09-28T03:09:01;21.10;94.80
36556;DHT22;40859;50.560;7.268;2022-09-28T03:11:59;21.10;94.70
36556;DHT22;40859;50.560;7.268;2022-09-28T03:14:28;21.00;94.70
36556;DHT22;40859;50.560;7.268;2022-09-28T03:16:53;21.00;94.70
36556;DHT22;40859;50.560;7.268;2022-09-28T03:19:24;21.00;94.70
36556;DHT22;40859;50.560;7.268;2022-09-28T03:21:51;21.00;94.70
36556;DHT22;40859;50.560;7.268;2022-09-28T03:24:17;21.10;94.70
36556;DHT22;40859;50.560;7.268;2022-09-28T03:26:43;21.10;94.70
36556;DHT22;40859;50.560;7.268;2022-09-28T03:29:09;21.10;94.70
36556;DHT22;40859;50.560;7.268;2022-09-28T03:31:34;21.10;94.60
36556;DHT22;40859;50.560;7.268;2022-09-28T03:34:00;21.10;94.60
36556;DHT22;40859;50.560;7.268;2022-09-28T03:36:26;21.10;94.50
36556;DHT22;40859;50.560;7.268;2022-09-28T03:38:52;21.10;94.50
36556;DHT22;40859;50.560;7.268;2022-09-28T03:41:22;21.10;93.60
36556;DHT22;40859;50.560;7.268;2022-09-28T03:43:48;21.10;93.30
36556;DHT22;40859;50.560;7.268;2022-09-28T03:46:13;21.10;93.40
36556;DHT22;40859;50.560;7.268;2022-09-28T03:48:39;21.00;93.70
36556;DHT22;40859;50.560;7.268;2022-09-28T03:51:06;21.00;93.40
36556;DHT22;40859;50.560;7.268;2022-09-28T03:53:34;21.00;93.40
36556;DHT22;40859;50.560;7.268;2022-09-28T03:56:09;20.90;93.50
36556;DHT22;40859;50.560;7.268;2022-09-28T03:58:36;20.90;93.60
36556;DHT22;40859;50.560;7.268;2022-09-28T04:01:05;20.80;93.70
36556;DHT22;40859;50.560;7.268;2022-09-28T04:03:31;20.80;93.80
36556;DHT22;40859;50.560;7.268;2022-09-28T04:05:57;20.80;93.80
36556;DHT22;40859;50.560;7.268;2022-09-28T04:08:24;20.80;93.80
36556;DHT22;40859;50.560;7.268;2022-09-28T04:32:45;20.80;94.70
36556;DHT22;40859;50.560;7.268;2022-09-28T04:35:12;20.80;94.70
36556;DHT22;40859;50.560;7.268;2022-09-28T04:37:38;20.90;94.80
36556;DHT22;40859;50.560;7.268;2022-09-28T04:40:05;20.90;94.90
36556;DHT22;40859;50.560;7.268;2022-09-28T04:42:31;20.90;94.90
36556;DHT22;40859;50.560;7.268;2022-09-28T04:44:56;21.00;94.90
36556;DHT22;40859;50.560;7.268;2022-09-28T04:47:23;21.00;94.90
36556;DHT22;40859;50.560;7.268;2022-09-28T04:49:52;21.00;94.90
36556;DHT22;40859;50.560;7.268;2022-09-28T04:52:18;21.00;95.00
36556;DHT22;40859;50.560;7.268;2022-09-28T04:54:43;21.00;94.90
36556;DHT22;40859;50.560;7.268;2022-09-28T04:57:09;21.00;95.00
36556;DHT22;40859;50.560;7.268;2022-09-28T04:59:35;21.00;94.90
36556;DHT22;40859;50.560;7.268;2022-09-28T05:02:02;21.00;94.90
36556;DHT22;40859;50.560;7.268;2022-09-28T05:04:29;21.00;94.90
36556;DHT22;40859;50.560;7.268;2022-09-28T05:06:56;21.00;94.90
36556;DHT22;40859;50.560;7.268;2022-09-28T05:09:21;21.10;94.90
36556;DHT22;40859;50.560;7.268;2022-09-28T05:11:51;21.10;94.90
36556;DHT22;40859;50.560;7.268;2022-09-28T05:14:18;21.10;94.90
36556;DHT22;40859;50.560;7.268;2022-09-28T05:16:46;21.10;94.90
36556;DHT22;40859;50.560;7.268;2022-09-28T05:19:12;21.10;95.00
36556;DHT22;40859;50.560;7.268;2022-09-28T05:21:38;21.10;94.90
36556;DHT22;40859;50.560;7.268;2022-09-28T05:24:05;21.10;94.90
36556;DHT22;40859;50.560;7.268;2022-09-28T05:26:33;21.10;94.90
36556;DHT22;40859;50.560;7.268;2022-09-28T05:28:58;21.10;94.90
36556;DHT22;40859;50.560;7.268;2022-09-28T05:31:24;21.10;95.00
36556;DHT22;40859;50.560;7.268;2022-09-28T05:33:51;21.10;94.90
36556;DHT22;40859;50.560;7.268;2022-09-28T05:36:18;21.10;95.00
36556;DHT22;40859;50.560;7.268;2022-09-28T05:38:47;21.10;95.00
36556;DHT22;40859;50.560;7.268;2022-09-28T05:41:12;21.10;95.00
36556;DHT22;40859;50.560;7.268;2022-09-28T05:43:38;21.20;94.90
36556;DHT22;40859;50.560;7.268;2022-09-28T05:46:05;21.20;94.90
36556;DHT22;40859;50.560;7.268;2022-09-28T05:48:31;21.20;95.00
36556;DHT22;40859;50.560;7.268;2022-09-28T05:50:57;21.10;95.00
36556;DHT22;40859;50.560;7.268;2022-09-28T05:53:24;21.10;95.00
36556;DHT22;40859;50.560;7.268;2022-09-28T05:55:50;21.10;95.00
36556;DHT22;40859;50.560;7.268;2022-09-28T05:58:16;21.20;95.00
36556;DHT22;40859;50.560;7.268;2022-09-28T06:00:42;21.20;95.00
36556;DHT22;40859;50.560;7.268;2022-09-28T06:03:11;21.20;95.00
36556;DHT22;40859;50.560;7.268;2022-09-28T06:05:38;21.20;95.00
36556;DHT22;40859;50.560;7.268;2022-09-28T06:08:05;21.20;95.00
36556;DHT22;40859;50.560;7.268;2022-09-28T06:10:33;21.20;95.00
36556;DHT22;40859;50.560;7.268;2022-09-28T06:12:59;21.20;95.00
36556;DHT22;40859;50.560;7.268;2022-09-28T06:15:27;21.20;95.00
36556;DHT22;40859;50.560;7.268;2022-09-28T06:18:00;21.20;95.00
36556;DHT22;40859;50.560;7.268;2022-09-28T06:20:28;21.20;95.00
36556;DHT22;40859;50.560;7.268;2022-09-28T06:22:55;21.20;95.00
36556;DHT22;40859;50.560;7.268;2022-09-28T06:25:22;21.20;95.00
36556;DHT22;40859;50.560;7.268;2022-09-28T06:28:01;21.20;95.00
36556;DHT22;40859;50.560;7.268;2022-09-28T06:30:29;21.20;95.00
36556;DHT22;40859;50.560;7.268;2022-09-28T06:32:56;21.20;95.40
36556;DHT22;40859;50.560;7.268;2022-09-28T06:35:23;21.30;94.70
36556;DHT22;40859;50.560;7.268;2022-09-28T06:37:50;21.30;94.90
36556;DHT22;40859;50.560;7.268;2022-09-28T06:40:16;21.20;95.00
36556;DHT22;40859;50.560;7.268;2022-09-28T06:42:42;21.20;95.00
36556;DHT22;40859;50.560;7.268;2022-09-28T06:45:08;21.20;95.10
36556;DHT22;40859;50.560;7.268;2022-09-28T06:47:35;21.20;95.00
36556;DHT22;40859;50.560;7.268;2022-09-28T06:50:03;21.20;95.10
36556;DHT22;40859;50.560;7.268;2022-09-28T06:52:35;21.20;95.10
36556;DHT22;40859;50.560;7.268;2022-09-28T06:55:01;21.20;95.10
36556;DHT22;40859;50.560;7.268;2022-09-28T06:57:27;21.20;95.10
36556;DHT22;40859;50.560;7.268;2022-09-28T06:59:52;21.10;95.10
36556;DHT22;40859;50.560;7.268;2022-09-28T07:02:18;21.10;95.10
36556;DHT22;40859;50.560;7.268;2022-09-28T07:04:44;21.10;95.10
36556;DHT22;40859;50.560;7.268;2022-09-28T07:07:10;21.20;95.20
36556;DHT22;40859;50.560;7.268;2022-09-28T07:09:36;21.10;95.10
36556;DHT22;40859;50.560;7.268;2022-09-28T07:12:02;21.10;95.10
36556;DHT22;40859;50.560;7.268;2022-09-28T07:14:32;21.20;95.20
36556;DHT22;40859;50.560;7.268;2022-09-28T07:16:58;21.20;95.20
36556;DHT22;40859;50.560;7.268;2022-09-28T07:19:23;21.10;95.20
36556;DHT22;40859;50.560;7.268;2022-09-28T07:21:52;21.20;95.10
36556;DHT22;40859;50.560;7.268;2022-09-28T07:24:18;21.20;95.10
36556;DHT22;40859;50.560;7.268;2022-09-28T07:26:44;21.20;95.00
36556;DHT22;40859;50.560;7.268;2022-09-28T07:29:11;21.20;95.00
36556;DHT22;40859;50.560;7.268;2022-09-28T07:31:38;21.10;94.90
36556;DHT22;40859;50.560;7.268;2022-09-28T07:34:04;21.10;95.00
36556;DHT22;40859;50.560;7.268;2022-09-28T07:36:30;21.10;95.00
36556;DHT22;40859;50.560;7.268;2022-09-28T07:39:00;21.10;95.00
36556;DHT22;40859;50.560;7.268;2022-09-28T07:41:26;21.10;95.00
36556;DHT22;40859;50.560;7.268;2022-09-28T07:43:59;21.10;95.10
36556;DHT22;40859;50.560;7.268;2022-09-28T07:46:34;21.10;95.10
36556;DHT22;40859;50.560;7.268;2022-09-28T07:49:01;21.10;95.20
36556;DHT22;40859;50.560;7.268;2022-09-28T07:51:30;21.00;95.10
36556;DHT22;40859;50.560;7.268;2022-09-28T07:53:56;21.00;95.10
36556;DHT22;40859;50.560;7.268;2022-09-28T07:56:22;21.00;95.20
36556;DHT22;40859;50.560;7.268;2022-09-28T07:58:48;21.00;95.20
36556;DHT22;40859;50.560;7.268;2022-09-28T08:01:15;21.00;95.20
36556;DHT22;40859;50.560;7.268;2022-09-28T08:03:45;21.00;95.20
36556;DHT22;40859;50.560;7.268;2022-09-28T08:06:14;21.00;95.10
36556;DHT22;40859;50.560;7.268;2022-09-28T08:08:42;21.00;95.10
36556;DHT22;40859;50.560;7.268;2022-09-28T08:11:15;21.10;95.20
36556;DHT22;40859;50.560;7.268;2022-09-28T08:13:43;21.00;95.10
36556;DHT22;40859;50.560;7.268;2022-09-28T08:16:11;21.10;95.10
36556;DHT22;40859;50.560;7.268;2022-09-28T08:18:37;21.10;95.10
36556;DHT22;40859;50.560;7.268;2022-09-28T08:21:05;21.10;95.10
36556;DHT22;40859;50.560;7.268;2022-09-28T08:23:50;21.10;95.10
36556;DHT22;40859;50.560;7.268;2022-09-28T08:26:16;21.10;95.10
36556;DHT22;40859;50.560;7.268;2022-09-28T08:28:42;21.10;95.10
36556;DHT22;40859;50.560;7.268;2022-09-28T08:31:09;21.10;95.10
36556;DHT22;40859;50.560;7.268;2022-09-28T08:33:36;21.10;95.10
36556;DHT22;40859;50.560;7.268;2022-09-28T08:36:02;21.10;95.10
36556;DHT22;40859;50.560;7.268;2022-09-28T08:38:29;21.10;95.10
36556;DHT22;40859;50.560;7.268;2022-09-28T08:47:09;21.10;95.10
36556;DHT22;40859;50.560;7.268;2022-09-28T08:53:04;21.10;95.10
36556;DHT22;40859;50.560;7.268;2022-09-28T08:55:36;21.10;95.20
36556;DHT22;40859;50.560;7.268;2022-09-28T08:58:14;21.10;95.20
36556;DHT22;40859;50.560;7.268;2022-09-28T09:00:51;21.10;95.20
36556;DHT22;40859;50.560;7.268;2022-09-28T09:03:24;21.10;95.20
36556;DHT22;40859;50.560;7.268;2022-09-28T09:06:38;21.10;95.20
36556;DHT22;40859;50.560;7.268;2022-09-28T09:09:54;21.10;95.20
36556;DHT22;40859;50.560;7.268;2022-09-28T09:12:48;21.10;95.20
36556;DHT22;40859;50.560;7.268;2022-09-28T09:20:53;21.20;95.20
36556;DHT22;40859;50.560;7.268;2022-09-28T09:23:37;21.10;95.20
36556;DHT22;40859;50.560;7.268;2022-09-28T09:26:18;21.10;95.20
36556;DHT22;40859;50.560;7.268;2022-09-28T09:29:09;21.10;95.20
36556;DHT22;40859;50.560;7.268;2022-09-28T09:34:19;21.10;95.30
36556;DHT22;40859;50.560;7.268;2022-09-28T09:47:17;21.10;95.30
36556;DHT22;40859;50.560;7.268;2022-09-28T09:50:02;21.10;95.40
36556;DHT22;40859;50.560;7.268;2022-09-28T09:52:45;21.10;95.40
36556;DHT22;40859;50.560;7.268;2022-09-28T09:58:30;21.10;95.50
36556;DHT22;40859;50.560;7.268;2022-09-28T10:01:04;21.10;95.40
36556;DHT22;40859;50.560;7.268;2022-09-28T10:03:33;21.10;95.40
36556;DHT22;40859;50.560;7.268;2022-09-28T10:06:13;21.10;95.50
36556;DHT22;40859;50.560;7.268;2022-09-28T10:08:48;21.10;95.50
36556;DHT22;40859;50.560;7.268;2022-09-28T10:11:20;21.10;95.90
36556;DHT22;40859;50.560;7.268;2022-09-28T10:13:50;21.10;95.60
36556;DHT22;40859;50.560;7.268;2022-09-28T10:16:17;21.10;95.60
36556;DHT22;40859;50.560;7.268;2022-09-28T10:18:43;21.10;95.60
36556;DHT22;40859;50.560;7.268;2022-09-28T10:21:17;21.10;95.60
36556;DHT22;40859;50.560;7.268;2022-09-28T10:23:54;21.10;95.60
36556;DHT22;40859;50.560;7.268;2022-09-28T10:26:38;21.10;95.60
36556;DHT22;40859;50.560;7.268;2022-09-28T10:29:11;21.10;95.60
36556;DHT22;40859;50.560;7.268;2022-09-28T10:31:47;21.10;95.70
36556;DHT22;40859;50.560;7.268;2022-09-28T10:34:15;21.10;95.60
36556;DHT22;40859;50.560;7.268;2022-09-28T10:36:58;21.10;95.60
36556;DHT22;40859;50.560;7.268;2022-09-28T10:39:51;21.10;95.60
36556;DHT22;40859;50.560;7.268;2022-09-28T10:42:29;21.10;95.60
36556;DHT22;40859;50.560;7.268;2022-09-28T10:45:02;21.10;95.70
36556;DHT22;40859;50.560;7.268;2022-09-28T10:47:37;21.10;95.70
36556;DHT22;40859;50.560;7.268;2022-09-28T10:50:26;21.10;95.70
36556;DHT22;40859;50.560;7.268;2022-09-28T10:52:53;21.10;95.70
36556;DHT22;40859;50.560;7.268;2022-09-28T10:55:31;21.10;95.70
36556;DHT22;40859;50.560;7.268;2022-09-28T10:57:58;21.10;95.70
36556;DHT22;40859;50.560;7.268;2022-09-28T11:00:39;21.10;95.70
36556;DHT22;40859;50.560;7.268;2022-09-28T11:06:04;21.10;95.70
36556;DHT22;40859;50.560;7.268;2022-09-28T11:08:37;21.20;95.70
36556;DHT22;40859;50.560;7.268;2022-09-28T11:11:12;21.10;95.70
36556;DHT22;40859;50.560;7.268;2022-09-28T11:13:53;21.10;95.70
36556;DHT22;40859;50.560;7.268;2022-09-28T11:16:31;21.20;95.70
36556;DHT22;40859;50.560;7.268;2022-09-28T11:19:03;21.10;95.60
36556;DHT22;40859;50.560;7.268;2022-09-28T11:21:39;21.20;95.70
36556;DHT22;40859;50.560;7.268;2022-09-28T11:24:18;21.10;95.60
36556;DHT22;40859;50.560;7.268;2022-09-28T11:26:46;21.20;96.10
36556;DHT22;40859;50.560;7.268;2022-09-28T11:30:37;21.20;95.80
36556;DHT22;40859;50.560;7.268;2022-09-28T11:33:35;21.10;95.70
36556;DHT22;40859;50.560;7.268;2022-09-28T11:39:07;21.10;95.70
36556;DHT22;40859;50.560;7.268;2022-09-28T11:43:19;21.10;95.70
36556;DHT22;40859;50.560;7.268;2022-09-28T11:45:55;21.10;95.70
36556;DHT22;40859;50.560;7.268;2022-09-28T11:48:28;21.10;95.70
36556;DHT22;40859;50.560;7.268;2022-09-28T11:51:10;21.20;95.70
36556;DHT22;40859;50.560;7.268;2022-09-28T11:53:46;21.20;95.70
36556;DHT22;40859;50.560;7.268;2022-09-28T11:56:40;21.20;95.80
36556;DHT22;40859;50.560;7.268;2022-09-28T11:59:34;21.10;95.70
36556;DHT22;40859;50.560;7.268;2022-09-28T12:03:12;21.20;95.70
36556;DHT22;40859;50.560;7.268;2022-09-28T12:05:54;21.20;95.70
36556;DHT22;40859;50.560;7.268;2022-09-28T12:08:25;21.20;95.70
36556;DHT22;40859;50.560;7.268;2022-09-28T12:11:10;21.20;95.80
36556;DHT22;40859;50.560;7.268;2022-09-28T12:13:44;21.20;95.80
36556;DHT22;40859;50.560;7.268;2022-09-28T12:16:28;21.20;95.70
36556;DHT22;40859;50.560;7.268;2022-09-28T12:19:09;21.20;95.80
36556;DHT22;40859;50.560;7.268;2022-09-28T12:21:43;21.20;95.70
36556;DHT22;40859;50.560;7.268;2022-09-28T12:24:23;21.20;95.70
36556;DHT22;40859;50.560;7.268;2022-09-28T12:33:40;21.20;95.70
36556;DHT22;40859;50.560;7.268;2022-09-28T12:36:42;21.20;95.70
36556;DHT22;40859;50.560;7.268;2022-09-28T12:43:32;21.20;95.80
36556;DHT22;40859;50.560;7.268;2022-09-28T12:47:54;21.20;95.80
36556;DHT22;40859;50.560;7.268;2022-09-28T12:51:57;21.20;95.80
36556;DHT22;40859;50.560;7.268;2022-09-28T13:03:02;21.20;95.80
36556;DHT22;40859;50.560;7.268;2022-09-28T13:06:10;21.20;95.80
36556;DHT22;40859;50.560;7.268;2022-09-28T13:18:02;21.20;95.80
36556;DHT22;40859;50.560;7.268;2022-09-28T13:21:02;21.20;95.80
36556;DHT22;40859;50.560;7.268;2022-09-28T13:23:34;21.20;95.80
36556;DHT22;40859;50.560;7.268;2022-09-28T13:26:27;21.20;95.70
36556;DHT22;40859;50.560;7.268;2022-09-28T13:28:59;21.20;95.70
36556;DHT22;40859;50.560;7.268;2022-09-28T13:31:30;21.20;95.70
36556;DHT22;40859;50.560;7.268;2022-09-28T13:33:59;21.20;95.70
36556;DHT22;40859;50.560;7.268;2022-09-28T13:36:44;21.20;95.70
36556;DHT22;40859;50.560;7.268;2022-09-28T13:43:01;21.20;95.70
36556;DHT22;40859;50.560;7.268;2022-09-28T13:45:51;21.20;95.70
36556;DHT22;40859;50.560;7.268;2022-09-28T13:48:31;21.20;95.70
36556;DHT22;40859;50.560;7.268;2022-09-28T13:51:31;21.20;95.70
36556;DHT22;40859;50.560;7.268;2022-09-28T13:54:29;21.20;95.60
36556;DHT22;40859;50.560;7.268;2022-09-28T13:57:35;21.20;95.70
36556;DHT22;40859;50.560;7.268;2022-09-28T14:02:44;21.20;95.70
36556;DHT22;40859;50.560;7.268;2022-09-28T14:10:52;21.20;95.70
36556;DHT22;40859;50.560;7.268;2022-09-28T14:36:03;21.20;95.70
36556;DHT22;40859;50.560;7.268;2022-09-28T14:38:43;21.20;95.70
36556;DHT22;40859;50.560;7.268;2022-09-28T14:41:37;21.20;95.70
36556;DHT22;40859;50.560;7.268;2022-09-28T14:44:13;21.20;95.70
36556;DHT22;40859;50.560;7.268;2022-09-28T14:47:23;21.20;95.70
36556;DHT22;40859;50.560;7.268;2022-09-28T14:49:59;21.20;95.70
36556;DHT22;40859;50.560;7.268;2022-09-28T14:52:38;21.20;95.70
36556;DHT22;40859;50.560;7.268;2022-09-28T14:55:11;21.20;95.70
36556;DHT22;40859;50.560;7.268;2022-09-28T14:57:39;21.30;95.80
36556;DHT22;40859;50.560;7.268;2022-09-28T15:00:21;21.30;95.80
36556;DHT22;40859;50.560;7.268;2022-09-28T15:03:01;21.30;95.70
36556;DHT22;40859;50.560;7.268;2022-09-28T15:05:41;21.20;95.70
36556;DHT22;40859;50.560;7.268;2022-09-28T15:08:10;21.30;95.80
36556;DHT22;40859;50.560;7.268;2022-09-28T15:10:38;21.30;95.80
36556;DHT22;40859;50.560;7.268;2022-09-28T15:13:24;21.30;95.80
36556;DHT22;40859;50.560;7.268;2022-09-28T15:15:53;21.30;95.80
36556;DHT22;40859;50.560;7.268;2022-09-28T15:21:12;21.30;95.80
36556;DHT22;40859;50.560;7.268;2022-09-28T15:23:40;21.30;95.80
36556;DHT22;40859;50.560;7.268;2022-09-28T15:26:23;21.30;95.80
36556;DHT22;40859;50.560;7.268;2022-09-28T15:28:52;21.30;95.80
36556;DHT22;40859;50.560;7.268;2022-09-28T15:31:21;21.30;95.80
36556;DHT22;40859;50.560;7.268;2022-09-28T15:33:47;21.30;95.80
36556;DHT22;40859;50.560;7.268;2022-09-28T15:36:38;21.30;95.80
36556;DHT22;40859;50.560;7.268;2022-09-28T15:39:13;21.30;95.80
36556;DHT22;40859;50.560;7.268;2022-09-28T15:41:45;21.30;96.10
36556;DHT22;40859;50.560;7.268;2022-09-28T15:44:28;21.30;95.80
36556;DHT22;40859;50.560;7.268;2022-09-28T15:47:12;21.30;95.90
36556;DHT22;40859;50.560;7.268;2022-09-28T15:50:02;21.30;95.90
36556;DHT22;40859;50.560;7.268;2022-09-28T15:52:53;21.30;95.80
36556;DHT22;40859;50.560;7.268;2022-09-28T15:55:33;21.30;95.80
36556;DHT22;40859;50.560;7.268;2022-09-28T15:58:17;21.30;95.80
36556;DHT22;40859;50.560;7.268;2022-09-28T16:00:49;21.30;95.90
36556;DHT22;40859;50.560;7.268;2022-09-28T16:03:31;21.30;95.90
36556;DHT22;40859;50.560;7.268;2022-09-28T16:06:08;21.30;95.80
36556;DHT22;40859;50.560;7.268;2022-09-28T16:08:44;21.30;95.80
36556;DHT22;40859;50.560;7.268;2022-09-28T16:11:29;21.30;95.90
36556;DHT22;40859;50.560;7.268;2022-09-28T16:14:17;21.30;95.90
36556;DHT22;40859;50.560;7.268;2022-09-28T16:16:48;21.30;95.80
36556;DHT22;40859;50.560;7.268;2022-09-28T16:19:35;21.30;95.90
36556;DHT22;40859;50.560;7.268;2022-09-28T16:22:04;21.30;95.80
36556;DHT22;40859;50.560;7.268;2022-09-28T16:24:37;21.30;95.80
36556;DHT22;40859;50.560;7.268;2022-09-28T16:27:07;21.30;95.80
36556;DHT22;40859;50.560;7.268;2022-09-28T16:29:42;21.40;95.80
36556;DHT22;40859;50.560;7.268;2022-09-28T16:35:50;21.40;95.90
36556;DHT22;40859;50.560;7.268;2022-09-28T16:38:16;21.40;95.80
36556;DHT22;40859;50.560;7.268;2022-09-28T16:40:47;21.40;95.80
36556;DHT22;40859;50.560;7.268;2022-09-28T16:43:27;21.40;95.80
36556;DHT22;40859;50.560;7.268;2022-09-28T16:45:54;21.40;95.80
36556;DHT22;40859;50.560;7.268;2022-09-28T16:48:27;21.40;95.80
36556;DHT22;40859;50.560;7.268;2022-09-28T16:50:55;21.40;95.70
36556;DHT22;40859;50.560;7.268;2022-09-28T16:53:21;21.40;95.70
36556;DHT22;40859;50.560;7.268;2022-09-28T16:56:05;21.30;95.70
36556;DHT22;40859;50.560;7.268;2022-09-28T16:58:31;21.30;95.70
36556;DHT22;40859;50.560;7.268;2022-09-28T17:00:58;21.30;95.70
36556;DHT22;40859;50.560;7.268;2022-09-28T17:03:27;21.40;95.70
36556;DHT22;40859;50.560;7.268;2022-09-28T17:05:53;21.30;95.70
36556;DHT22;40859;50.560;7.268;2022-09-28T17:08:21;21.30;95.70
36556;DHT22;40859;50.560;7.268;2022-09-28T17:11:11;21.30;95.70
36556;DHT22;40859;50.560;7.268;2022-09-28T17:13:40;21.40;95.70
36556;DHT22;40859;50.560;7.268;2022-09-28T17:16:15;21.40;95.70
36556;DHT22;40859;50.560;7.268;2022-09-28T17:18:43;21.30;95.60
36556;DHT22;40859;50.560;7.268;2022-09-28T17:21:17;21.30;95.60
36556;DHT22;40859;50.560;7.268;2022-09-28T17:23:44;21.30;95.60
36556;DHT22;40859;50.560;7.268;2022-09-28T17:26:26;21.30;95.60
36556;DHT22;40859;50.560;7.268;2022-09-28T17:28:55;21.40;95.60
36556;DHT22;40859;50.560;7.268;2022-09-28T17:31:22;21.40;95.60
36556;DHT22;40859;50.560;7.268;2022-09-28T17:33:48;21.40;95.60
36556;DHT22;40859;50.560;7.268;2022-09-28T17:36:16;21.40;95.70
36556;DHT22;40859;50.560;7.268;2022-09-28T17:38:43;21.40;95.60
36556;DHT22;40859;50.560;7.268;2022-09-28T17:41:11;21.40;95.70
36556;DHT22;40859;50.560;7.268;2022-09-28T17:43:37;21.40;95.60
36556;DHT22;40859;50.560;7.268;2022-09-28T17:46:15;21.40;95.70
36556;DHT22;40859;50.560;7.268;2022-09-28T17:48:43;21.40;95.70
36556;DHT22;40859;50.560;7.268;2022-09-28T17:51:13;21.40;95.70
36556;DHT22;40859;50.560;7.268;2022-09-28T17:53:39;21.40;95.60
36556;DHT22;40859;50.560;7.268;2022-09-28T17:56:05;21.40;95.70
36556;DHT22;40859;50.560;7.268;2022-09-28T17:58:32;21.40;95.60
36556;DHT22;40859;50.560;7.268;2022-09-28T18:00:58;21.40;95.60
36556;DHT22;40859;50.560;7.268;2022-09-28T18:03:24;21.40;95.60
36556;DHT22;40859;50.560;7.268;2022-09-28T18:06:03;21.40;95.60
36556;DHT22;40859;50.560;7.268;2022-09-28T18:08:31;21.40;95.60
36556;DHT22;40859;50.560;7.268;2022-09-28T18:10:57;21.40;95.70
36556;DHT22;40859;50.560;7.268;2022-09-28T18:13:24;21.40;95.70
36556;DHT22;40859;50.560;7.268;2022-09-28T18:15:54;21.40;96.00
36556;DHT22;40859;50.560;7.268;2022-09-28T18:18:21;21.40;95.70
36556;DHT22;40859;50.560;7.268;2022-09-28T18:20:47;21.40;95.70
36556;DHT22;40859;50.560;7.268;2022-09-28T18:23:13;21.40;95.70
36556;DHT22;40859;50.560;7.268;2022-09-28T18:25:43;21.40;95.70
36556;DHT22;40859;50.560;7.268;2022-09-28T18:28:10;21.40;95.70
36556;DHT22;40859;50.560;7.268;2022-09-28T18:30:41;21.40;95.60
36556;DHT22;40859;50.560;7.268;2022-09-28T18:33:08;21.40;95.60
36556;DHT22;40859;50.560;7.268;2022-09-28T18:35:34;21.40;95.60
36556;DHT22;40859;50.560;7.268;2022-09-28T18:38:00;21.40;95.60
36556;DHT22;40859;50.560;7.268;2022-09-28T18:40:26;21.40;95.60
36556;DHT22;40859;50.560;7.268;2022-09-28T18:42:51;21.40;95.70
36556;DHT22;40859;50.560;7.268;2022-09-28T18:45:18;21.40;95.60
36556;DHT22;40859;50.560;7.268;2022-09-28T18:47:44;21.40;95.70